Time;durP1;ratioP1;P1;durP2;ratioP2;P2;SDS_P1;SDS_P2;PMS_P1;PMS_P2;Temp;Humidity;BMP_temperature;BMP_pressure;BME280_temperature;BME280_humidity;BME280_pressure;Samples;Min_cycle;Max_cycle;Signal;HPM_P1;HPM_P2
2022/11/21 00:00:48;;;;;;;37.08;30.48;;;1.80;99.90;;;;;;5000026;28;20045;-73
2022/11/21 00:03:14;;;;;;;37.38;30.20;;;1.40;99.90;;;;;;5035231;28;20380;-73
2022/11/21 00:05:45;;;;;;;40.55;31.85;;;1.40;99.90;;;;;;5034238;28;20120;-74
2022/11/21 00:08:12;;;;;;;41.28;31.80;;;1.40;99.90;;;;;;5014618;28;20046;-74
2022/11/21 00:10:39;;;;;;;38.72;31.48;;;1.40;99.90;;;;;;5015114;28;20061;-73
2022/11/21 00:13:06;;;;;;;37.38;31.67;;;1.40;99.90;;;;;;5000571;28;20060;-74
2022/11/21 00:15:34;;;;;;;37.65;31.27;;;1.30;99.90;;;;;;5033845;28;20465;-74
2022/11/21 00:18:02;;;;;;;38.72;31.38;;;1.40;99.90;;;;;;5015346;28;20353;-73
2022/11/21 00:20:27;;;;;;;38.38;31.13;;;1.30;99.90;;;;;;5015059;28;20069;-73
2022/11/21 00:22:53;;;;;;;38.20;32.20;;;1.30;99.90;;;;;;5015318;28;20041;-74
2022/11/21 00:25:18;;;;;;;38.65;31.48;;;1.30;99.90;;;;;;5014186;28;20045;-74
2022/11/21 00:27:44;;;;;;;42.95;32.95;;;1.90;99.90;;;;;;5014988;28;20124;-74
2022/11/21 00:30:11;;;;;;;39.10;31.80;;;1.30;99.90;;;;;;5011342;28;20453;-74
2022/11/21 00:32:37;;;;;;;38.85;31.77;;;1.30;99.90;;;;;;5000604;28;20065;-74
2022/11/21 00:35:03;;;;;;;40.08;32.67;;;1.30;99.90;;;;;;5001005;28;20054;-73
2022/11/21 00:37:31;;;;;;;39.15;31.48;;;1.30;99.90;;;;;;5034682;28;20124;-74
2022/11/21 00:39:56;;;;;;;37.53;30.90;;;1.30;99.90;;;;;;5019664;28;20050;-74
2022/11/21 00:42:22;;;;;;;39.42;31.00;;;1.30;99.90;;;;;;5018239;28;20053;-74
2022/11/21 00:44:48;;;;;;;41.03;31.67;;;1.30;99.90;;;;;;5018997;28;20152;-74
2022/11/21 00:47:13;;;;;;;41.55;32.13;;;1.30;99.90;;;;;;5018826;28;20188;-74
2022/11/21 00:49:39;;;;;;;39.83;31.27;;;1.20;99.90;;;;;;5018619;28;20121;-74
2022/11/21 00:52:04;;;;;;;40.13;32.28;;;1.20;99.90;;;;;;5018761;28;20034;-73
2022/11/21 00:54:30;;;;;;;35.47;29.95;;;1.20;99.90;;;;;;5018452;28;20096;-74
2022/11/21 00:56:56;;;;;;;42.47;32.45;;;1.20;99.90;;;;;;5001460;28;20037;-74
2022/11/21 00:59:21;;;;;;;40.97;31.20;;;1.20;99.90;;;;;;5018038;28;20037;-73
2022/11/21 01:01:47;;;;;;;40.15;31.88;;;1.20;99.90;;;;;;5018394;28;20088;-74
2022/11/21 01:04:12;;;;;;;39.53;31.67;;;1.20;99.90;;;;;;5018451;28;20049;-75
2022/11/21 01:06:38;;;;;;;40.80;31.13;;;1.20;99.90;;;;;;5001518;28;20050;-74
2022/11/21 01:09:04;;;;;;;39.90;32.05;;;1.20;99.90;;;;;;5018473;28;20064;-74
2022/11/21 01:11:30;;;;;;;41.70;31.40;;;1.10;99.90;;;;;;5018493;28;20049;-74
2022/11/21 01:13:56;;;;;;;37.33;30.30;;;1.10;99.90;;;;;;5017965;28;20057;-74
2022/11/21 01:16:24;;;;;;;40.65;30.90;;;1.00;99.90;;;;;;5018831;28;20131;-74
2022/11/21 01:18:50;;;;;;;38.47;30.77;;;1.00;99.90;;;;;;5018011;28;20050;-73
2022/11/21 01:21:17;;;;;;;36.47;29.25;;;1.00;99.90;;;;;;5018265;28;20128;-74
2022/11/21 01:23:43;;;;;;;36.85;29.05;;;0.80;99.90;;;;;;5000906;28;20030;-74
2022/11/21 01:26:18;;;;;;;33.45;27.08;;;0.70;99.90;;;;;;5018229;28;20081;-73
2022/11/21 01:28:44;;;;;;;36.80;29.48;;;0.60;99.90;;;;;;5018195;28;20485;-73
2022/11/21 01:31:15;;;;;;;35.40;28.40;;;0.50;99.90;;;;;;5018436;28;20038;-73
2022/11/21 01:33:42;;;;;;;36.50;29.20;;;0.50;99.90;;;;;;5017729;28;20120;-74
2022/11/21 01:36:10;;;;;;;41.45;30.33;;;0.40;99.90;;;;;;5017376;28;20468;-73
2022/11/21 01:38:36;;;;;;;40.20;30.42;;;0.30;99.90;;;;;;5000647;28;20824;-73
2022/11/21 01:41:01;;;;;;;44.47;30.95;;;0.20;99.90;;;;;;5017812;28;20037;-74
2022/11/21 01:43:27;;;;;;;38.22;29.77;;;0.10;99.90;;;;;;5005738;28;20127;-74
2022/11/21 01:45:58;;;;;;;37.38;29.92;;;0.50;99.90;;;;;;5020496;28;20050;-73
2022/11/21 01:48:41;;;;;;;41.33;30.95;;;0.00;99.90;;;;;;5017644;28;20167;-74
2022/11/21 01:51:15;;;;;;;42.70;31.85;;;-0.10;99.90;;;;;;5017684;28;20132;-74
2022/11/21 01:53:45;;;;;;;39.95;31.88;;;-0.10;99.90;;;;;;5032773;28;20042;-74
2022/11/21 01:56:11;;;;;;;42.08;32.42;;;-0.20;99.90;;;;;;5002875;28;20064;-73
2022/11/21 01:58:39;;;;;;;47.58;34.22;;;0.00;99.90;;;;;;5017603;28;20053;-75
2022/11/21 02:01:05;;;;;;;44.53;32.92;;;-0.30;99.90;;;;;;5017414;28;20030;-74
2022/11/21 02:03:34;;;;;;;42.95;33.70;;;-0.30;99.90;;;;;;5017160;28;20133;-74
2022/11/21 02:06:00;;;;;;;44.83;33.95;;;-0.40;99.90;;;;;;5018401;28;20452;-74
2022/11/21 02:08:27;;;;;;;45.60;33.80;;;-0.40;99.90;;;;;;5017386;28;20084;-74
2022/11/21 02:11:07;;;;;;;47.22;34.92;;;-0.40;99.90;;;;;;5017248;28;20049;-74
2022/11/21 02:13:33;;;;;;;41.28;31.98;;;-0.50;99.90;;;;;;5004967;28;20355;-74
2022/11/21 02:15:59;;;;;;;47.33;35.83;;;-0.50;99.90;;;;;;5019545;28;20052;-74
2022/11/21 02:18:24;;;;;;;47.15;36.70;;;-0.10;99.90;;;;;;5017104;28;20061;-74
2022/11/21 02:20:55;;;;;;;42.30;33.97;;;-0.60;99.90;;;;;;5016928;28;20049;-74
2022/11/21 02:23:20;;;;;;;47.80;35.08;;;-0.60;99.90;;;;;;5016760;28;20080;-73
2022/11/21 02:25:46;;;;;;;51.13;38.47;;;-0.60;99.90;;;;;;5016967;28;20106;-74
2022/11/21 02:28:15;;;;;;;53.40;38.70;;;-0.70;99.90;;;;;;5017072;28;20408;-75
2022/11/21 02:30:41;;;;;;;48.95;37.17;;;-0.70;99.90;;;;;;5017527;28;20042;-74
2022/11/21 02:33:07;;;;;;;49.00;37.30;;;-0.70;99.90;;;;;;5016405;28;20049;-74
2022/11/21 02:35:33;;;;;;;61.13;41.15;;;-0.80;99.90;;;;;;5019390;28;20450;-73
2022/11/21 02:38:19;;;;;;;51.30;39.05;;;-0.80;99.90;;;;;;5001041;28;20059;-74
2022/11/21 02:40:59;;;;;;;44.35;35.42;;;-0.80;99.90;;;;;;5005379;28;20046;-74
2022/11/21 02:43:30;;;;;;;53.03;39.72;;;-0.80;99.90;;;;;;5002920;28;20041;-74
2022/11/21 02:45:55;;;;;;;59.60;42.35;;;-0.90;99.90;;;;;;5036053;28;20067;-74
2022/11/21 02:48:21;;;;;;;53.58;38.00;;;-0.90;99.90;;;;;;5035643;28;20405;-74
2022/11/21 02:50:47;;;;;;;45.95;35.83;;;-0.90;99.90;;;;;;5028044;28;20060;-73
2022/11/21 02:53:15;;;;;;;51.05;38.95;;;-0.10;99.90;;;;;;5016593;28;20085;-74
2022/11/21 02:55:41;;;;;;;55.80;36.97;;;-1.00;99.90;;;;;;5016585;28;20042;-74
2022/11/21 02:58:07;;;;;;;50.17;36.05;;;-1.00;99.90;;;;;;4999040;28;20069;-74
2022/11/21 03:00:34;;;;;;;50.08;37.13;;;-1.00;99.90;;;;;;5016452;28;20200;-74
2022/11/21 03:03:00;;;;;;;41.78;33.92;;;-1.00;99.90;;;;;;5016565;28;20338;-74
2022/11/21 03:05:26;;;;;;;51.67;38.60;;;-0.40;99.90;;;;;;5017319;28;20057;-74
2022/11/21 03:07:52;;;;;;;57.22;39.45;;;-1.10;99.90;;;;;;5002752;28;20136;-74
2022/11/21 03:10:17;;;;;;;49.50;38.60;;;-1.60;99.90;;;;;;5036194;28;20140;-74
2022/11/21 03:12:43;;;;;;;55.55;39.92;;;-1.10;99.90;;;;;;5018486;28;20045;-73
2022/11/21 03:15:11;;;;;;;52.72;39.53;;;-1.10;99.90;;;;;;5002237;28;20045;-74
2022/11/21 03:17:37;;;;;;;53.60;38.90;;;-1.10;99.90;;;;;;5022167;28;20133;-74
2022/11/21 03:20:04;;;;;;;48.58;36.38;;;-1.10;99.90;;;;;;5016059;28;20033;-74
2022/11/21 03:22:30;;;;;;;47.15;34.97;;;-1.10;99.90;;;;;;5016223;28;20048;-73
2022/11/21 03:24:55;;;;;;;52.50;38.78;;;-1.20;99.90;;;;;;5015068;28;20117;-74
2022/11/21 03:27:21;;;;;;;56.55;40.65;;;-1.20;99.90;;;;;;5016014;28;20054;-73
2022/11/21 03:29:47;;;;;;;57.55;40.00;;;-1.20;99.90;;;;;;5015546;28;20046;-73
2022/11/21 03:32:12;;;;;;;54.00;39.80;;;-1.20;99.90;;;;;;5015498;28;20081;-74
2022/11/21 03:34:38;;;;;;;49.10;37.85;;;-1.20;99.90;;;;;;5017652;28;20081;-74
2022/11/21 03:37:04;;;;;;;55.03;39.47;;;-1.20;99.90;;;;;;5017122;28;20042;-74
2022/11/21 03:39:30;;;;;;;56.28;40.42;;;-1.30;99.90;;;;;;5015264;28;20057;-74
2022/11/21 03:41:55;;;;;;;58.80;42.35;;;-1.30;99.90;;;;;;4998496;28;20099;-74
2022/11/21 03:44:21;;;;;;;50.25;38.22;;;-1.30;99.90;;;;;;5015801;28;20034;-74
2022/11/21 03:46:47;;;;;;;59.05;40.80;;;-1.30;99.90;;;;;;5015466;28;20049;-73
2022/11/21 03:49:13;;;;;;;52.50;38.03;;;-1.30;99.90;;;;;;5012952;28;20061;-74
2022/11/21 03:51:39;;;;;;;60.55;40.17;;;-1.30;99.90;;;;;;5015348;28;20125;-74
2022/11/21 03:54:05;;;;;;;53.97;38.55;;;-1.40;99.90;;;;;;5000640;28;20073;-74
2022/11/21 03:56:31;;;;;;;51.17;37.05;;;-1.40;99.90;;;;;;5013241;28;20144;-74
2022/11/21 03:58:57;;;;;;;53.13;38.88;;;-1.40;99.90;;;;;;5001206;28;20041;-73
2022/11/21 04:01:23;;;;;;;51.40;37.65;;;-1.40;99.90;;;;;;5035099;28;20045;-74
2022/11/21 04:03:49;;;;;;;52.35;37.85;;;-1.40;99.90;;;;;;5026130;28;20042;-74
2022/11/21 04:06:17;;;;;;;57.35;40.33;;;-1.40;99.90;;;;;;5015489;28;20029;-74
2022/11/21 04:08:43;;;;;;;51.40;38.63;;;-1.50;99.90;;;;;;5015162;28;20056;-74
2022/11/21 04:11:09;;;;;;;52.30;38.40;;;-0.90;99.90;;;;;;4998084;28;20058;-73
2022/11/21 04:13:34;;;;;;;53.55;39.10;;;-1.50;99.90;;;;;;5015068;28;20074;-74
2022/11/21 04:16:00;;;;;;;57.50;41.58;;;-1.50;99.90;;;;;;5015403;28;20046;-74
2022/11/21 04:18:26;;;;;;;57.55;40.83;;;-1.50;99.90;;;;;;5015049;28;20125;-73
2022/11/21 04:20:59;;;;;;;60.53;41.15;;;-1.50;99.90;;;;;;5015484;28;20042;-74
2022/11/21 04:23:26;;;;;;;54.60;39.88;;;-1.50;99.90;;;;;;4997764;28;20125;-74
2022/11/21 04:25:52;;;;;;;56.35;41.92;;;-1.50;99.90;;;;;;5014886;28;20045;-74
2022/11/21 04:28:17;;;;;;;53.67;39.67;;;-1.50;99.90;;;;;;5014909;28;20081;-73
2022/11/21 04:30:43;;;;;;;57.03;40.45;;;-1.50;99.90;;;;;;5012273;28;20079;-74
2022/11/21 04:33:13;;;;;;;47.05;34.08;;;-1.60;99.90;;;;;;5014685;28;20378;-73
2022/11/21 04:35:39;;;;;;;55.03;39.72;;;-1.60;99.90;;;;;;5014559;28;20120;-74
2022/11/21 04:38:04;;;;;;;56.83;40.63;;;-1.60;99.90;;;;;;5014941;28;20041;-74
2022/11/21 04:40:30;;;;;;;59.55;41.83;;;-1.60;99.90;;;;;;5014771;28;20050;-74
2022/11/21 04:42:56;;;;;;;53.83;40.88;;;-1.60;99.90;;;;;;5014732;28;20042;-74
2022/11/21 04:45:21;;;;;;;56.42;40.13;;;-1.60;99.90;;;;;;5014979;28;20056;-74
2022/11/21 04:47:49;;;;;;;55.97;40.38;;;-0.70;99.90;;;;;;5000283;28;20092;-74
2022/11/21 04:50:16;;;;;;;57.55;41.80;;;-1.60;99.90;;;;;;5014273;28;20041;-74
2022/11/21 04:52:42;;;;;;;58.10;42.47;;;-1.60;99.90;;;;;;5014693;28;20077;-74
2022/11/21 04:55:08;;;;;;;62.38;43.22;;;-1.60;99.90;;;;;;5014485;28;20077;-74
2022/11/21 04:57:34;;;;;;;61.05;44.50;;;-1.50;99.90;;;;;;5014909;28;20041;-73
2022/11/21 05:00:00;;;;;;;60.03;44.10;;;-1.50;99.90;;;;;;5015938;28;20065;-75
2022/11/21 05:02:25;;;;;;;63.83;44.28;;;-1.50;99.90;;;;;;5014180;28;20465;-73
2022/11/21 05:04:51;;;;;;;65.18;44.08;;;-1.50;99.90;;;;;;5017403;28;20100;-74
2022/11/21 05:07:16;;;;;;;62.92;44.65;;;-1.50;99.90;;;;;;5014630;28;20041;-74
2022/11/21 05:09:42;;;;;;;59.25;42.28;;;-1.50;99.90;;;;;;5014756;28;20129;-73
2022/11/21 05:14:54;;;;;;;58.60;39.92;;;-1.50;99.90;;;;;;4997076;28;20089;-73
2022/11/21 05:17:19;;;;;;;57.03;40.53;;;-1.60;99.90;;;;;;5014825;28;20085;-74
2022/11/21 05:19:45;;;;;;;61.03;42.42;;;-1.60;99.90;;;;;;5015050;28;20128;-75
2022/11/21 05:22:11;;;;;;;63.10;43.53;;;-1.60;99.90;;;;;;5014639;28;20041;-73
2022/11/21 05:24:37;;;;;;;56.15;40.15;;;-1.60;99.90;;;;;;5014386;28;20052;-74
2022/11/21 05:27:03;;;;;;;59.47;42.13;;;-1.70;99.90;;;;;;5016408;28;20157;-74
2022/11/21 05:29:28;;;;;;;71.80;47.08;;;-1.70;99.90;;;;;;5018395;28;20056;-74
2022/11/21 05:31:54;;;;;;;60.65;42.97;;;-1.70;99.90;;;;;;5017908;28;20038;-73
2022/11/21 05:34:20;;;;;;;70.75;48.33;;;-1.60;99.90;;;;;;5019083;28;20521;-74
2022/11/21 05:36:45;;;;;;;71.50;49.67;;;-1.60;99.90;;;;;;5018090;28;20062;-73
2022/11/21 05:39:11;;;;;;;76.78;48.67;;;-1.60;99.90;;;;;;5000613;28;20052;-73
2022/11/21 05:41:41;;;;;;;72.93;47.83;;;-1.60;99.90;;;;;;5017201;28;20491;-71
2022/11/21 05:44:07;;;;;;;77.03;50.63;;;-1.70;99.90;;;;;;5002353;28;20038;-75
2022/11/21 05:46:32;;;;;;;75.13;48.65;;;-1.60;99.90;;;;;;4997163;28;20053;-72
2022/11/21 05:48:58;;;;;;;71.38;49.00;;;-1.60;99.90;;;;;;4992268;28;20049;-72
2022/11/21 05:51:24;;;;;;;79.35;48.78;;;-1.60;99.90;;;;;;5017219;28;20053;-71
2022/11/21 05:53:49;;;;;;;69.40;46.25;;;-1.60;99.90;;;;;;5017671;28;20037;-72
2022/11/21 05:56:17;;;;;;;67.28;46.08;;;-1.60;99.90;;;;;;5016881;28;20461;-72
2022/11/21 05:58:43;;;;;;;78.18;50.08;;;-1.10;99.90;;;;;;4997961;28;20100;-72
2022/11/21 06:01:11;;;;;;;86.45;53.92;;;-1.60;99.90;;;;;;4997727;28;20514;-73
2022/11/21 06:03:39;;;;;;;81.05;52.13;;;-1.50;99.90;;;;;;4997805;28;20081;-72
2022/11/21 06:06:13;;;;;;;91.28;54.70;;;-1.50;99.90;;;;;;4980796;28;20390;-72
2022/11/21 06:08:39;;;;;;;92.70;55.05;;;-1.50;99.90;;;;;;5005794;28;20089;-71
2022/11/21 06:11:06;;;;;;;66.63;45.67;;;-1.50;99.90;;;;;;4999923;28;20472;-72
2022/11/21 06:13:35;;;;;;;68.75;45.63;;;-1.50;99.90;;;;;;5016913;28;20510;-73
2022/11/21 06:16:08;;;;;;;71.97;46.83;;;-1.50;99.90;;;;;;5017234;28;20042;-72
2022/11/21 06:18:36;;;;;;;71.60;45.85;;;-1.60;99.90;;;;;;5017275;28;20042;-71
2022/11/21 06:21:15;;;;;;;62.83;43.03;;;-1.60;99.90;;;;;;5017193;28;20112;-72
2022/11/21 06:23:41;;;;;;;62.72;44.03;;;-1.70;99.90;;;;;;5017081;28;20125;-71
2022/11/21 06:26:11;;;;;;;60.65;42.40;;;-1.70;99.90;;;;;;5017301;28;20419;-72
2022/11/21 06:28:38;;;;;;;72.05;47.08;;;-1.80;99.90;;;;;;5017017;28;20057;-72
2022/11/21 06:31:09;;;;;;;69.80;47.47;;;-1.80;99.90;;;;;;5017099;28;20046;-74
2022/11/21 06:33:36;;;;;;;74.03;49.40;;;-1.80;99.90;;;;;;5013690;28;20092;-73
2022/11/21 06:36:07;;;;;;;75.80;49.72;;;-1.80;99.90;;;;;;5016617;28;20073;-74
2022/11/21 06:38:33;;;;;;;88.35;52.97;;;-1.80;99.90;;;;;;5015618;28;20107;-72
2022/11/21 06:41:15;;;;;;;95.13;56.20;;;-1.70;99.90;;;;;;4997371;28;20477;-71
2022/11/21 06:43:41;;;;;;;87.63;55.78;;;-1.70;99.90;;;;;;5016555;28;20049;-72
2022/11/21 06:46:08;;;;;;;86.43;54.22;;;-1.70;99.90;;;;;;5016528;28;20192;-72
2022/11/21 06:48:35;;;;;;;84.25;53.17;;;-1.20;99.90;;;;;;5015954;28;20363;-73
2022/11/21 06:51:07;;;;;;;77.70;50.88;;;-1.70;99.90;;;;;;5015855;28;20041;-73
2022/11/21 06:53:34;;;;;;;81.60;51.25;;;-1.00;99.90;;;;;;5016456;28;20151;-73
2022/11/21 06:56:01;;;;;;;85.75;52.38;;;-1.80;99.90;;;;;;5016506;28;20049;-73
2022/11/21 06:58:27;;;;;;;80.82;51.28;;;-1.80;99.90;;;;;;4999510;28;20144;-73
2022/11/21 07:00:52;;;;;;;85.03;50.35;;;-1.80;99.90;;;;;;5016320;28;20038;-73
2022/11/21 07:03:18;;;;;;;79.60;51.38;;;-1.80;99.90;;;;;;5015549;28;20069;-73
2022/11/21 07:05:43;;;;;;;78.68;50.75;;;-1.80;99.90;;;;;;4998693;28;20116;-74
2022/11/21 07:08:09;;;;;;;77.55;49.22;;;-1.80;99.90;;;;;;4998159;28;20041;-74
2022/11/21 07:10:34;;;;;;;82.30;51.10;;;-1.90;99.90;;;;;;5016047;28;20058;-72
2022/11/21 07:15:46;;;;;;;85.65;52.75;;;-1.20;99.90;;;;;;4996468;28;20058;-73
2022/11/21 07:18:12;;;;;;;78.93;51.60;;;-1.80;99.90;;;;;;4996416;28;20050;-72
2022/11/21 07:20:39;;;;;;;71.65;48.00;;;-1.80;99.90;;;;;;5008311;28;20358;-72
2022/11/21 07:23:06;;;;;;;77.07;49.53;;;-1.80;99.90;;;;;;5016192;28;20049;-73
2022/11/21 07:25:31;;;;;;;82.18;50.47;;;-1.80;99.90;;;;;;4998775;28;20064;-73
2022/11/21 07:27:58;;;;;;;76.35;50.53;;;-1.80;99.90;;;;;;5016166;28;20049;-72
2022/11/21 07:30:24;;;;;;;82.43;51.28;;;-1.90;99.90;;;;;;5015966;28;20050;-74
2022/11/21 07:33:00;;;;;;;81.85;51.70;;;-1.60;99.90;;;;;;5015527;28;20058;-73
2022/11/21 07:35:26;;;;;;;77.47;51.95;;;-1.00;99.90;;;;;;5014996;28;20041;-70
2022/11/21 07:37:53;;;;;;;89.68;54.95;;;-1.80;99.90;;;;;;5015626;28;20046;-72
2022/11/21 07:40:20;;;;;;;93.13;56.58;;;-0.80;99.90;;;;;;5015550;28;20046;-72
2022/11/21 07:42:46;;;;;;;95.20;57.75;;;-1.80;99.90;;;;;;5015828;28;20121;-71
2022/11/21 07:45:13;;;;;;;96.03;58.28;;;-1.70;99.90;;;;;;5015748;28;20050;-72
2022/11/21 07:47:38;;;;;;;873.42;120.20;;;-1.70;99.90;;;;;;5015764;28;20050;-72
2022/11/21 07:50:05;;;;;;;95.65;57.35;;;-1.70;99.90;;;;;;5015037;28;20128;-71
2022/11/21 07:52:31;;;;;;;100.57;59.53;;;-1.70;99.90;;;;;;4996743;28;20351;-75
2022/11/21 07:54:57;;;;;;;89.60;57.80;;;-1.60;99.90;;;;;;4995447;28;20050;-74
2022/11/21 07:57:23;;;;;;;95.93;57.20;;;-1.60;99.90;;;;;;4999901;28;20121;-73
2022/11/21 07:59:49;;;;;;;82.20;52.92;;;-1.60;99.90;;;;;;5007088;28;20041;-73
2022/11/21 08:02:19;;;;;;;93.13;54.70;;;-1.60;99.90;;;;;;5014631;28;20044;-72
2022/11/21 08:04:45;;;;;;;90.57;55.58;;;-1.60;99.90;;;;;;4987816;28;20101;-72
2022/11/21 08:07:11;;;;;;;99.65;57.60;;;-1.50;99.90;;;;;;4994995;28;20042;-73
2022/11/21 08:09:36;;;;;;;95.63;57.97;;;-1.50;99.90;;;;;;4997783;28;20056;-72
2022/11/21 08:12:02;;;;;;;87.93;55.08;;;-1.50;99.90;;;;;;5014402;28;20112;-72
2022/11/21 08:14:28;;;;;;;85.00;53.75;;;-1.50;99.90;;;;;;5014529;28;20033;-72
2022/11/21 08:16:53;;;;;;;76.72;51.47;;;-1.50;99.90;;;;;;5004001;28;20057;-72
2022/11/21 08:19:19;;;;;;;85.43;54.42;;;-1.40;99.90;;;;;;4990470;28;20038;-72
2022/11/21 08:21:44;;;;;;;82.93;54.88;;;-1.40;99.90;;;;;;5009920;28;20353;-72
2022/11/21 08:24:13;;;;;;;80.30;53.17;;;-1.40;99.90;;;;;;5014037;28;20088;-71
2022/11/21 08:26:40;;;;;;;85.53;54.83;;;-1.40;99.90;;;;;;4996660;28;20062;-73
2022/11/21 08:29:06;;;;;;;81.40;53.45;;;-1.30;99.90;;;;;;5014095;28;20125;-72
2022/11/21 08:31:31;;;;;;;78.88;53.13;;;-1.30;99.90;;;;;;5005199;28;20066;-72
2022/11/21 08:33:57;;;;;;;81.60;55.33;;;-1.20;99.90;;;;;;5014059;28;20452;-72
2022/11/21 08:36:23;;;;;;;81.22;53.50;;;-1.20;99.90;;;;;;5014316;28;20438;-72
2022/11/21 08:38:49;;;;;;;79.53;54.13;;;-1.20;99.90;;;;;;5013858;28;20484;-71
2022/11/21 08:43:58;;;;;;;74.30;50.55;;;-1.20;99.90;;;;;;4996800;28;20111;-71
2022/11/21 08:46:27;;;;;;;80.45;53.13;;;-1.10;99.90;;;;;;5001233;28;20051;-71
2022/11/21 08:48:54;;;;;;;79.57;53.35;;;-1.00;99.90;;;;;;4994988;28;20042;-73
2022/11/21 08:51:20;;;;;;;80.50;53.42;;;-0.90;99.90;;;;;;4995267;28;20123;-71
2022/11/21 08:53:46;;;;;;;88.97;57.95;;;-0.80;99.90;;;;;;4995073;28;20046;-72
2022/11/21 08:56:12;;;;;;;79.97;54.95;;;-0.60;99.90;;;;;;4995197;28;20050;-71
2022/11/21 08:58:38;;;;;;;85.40;56.15;;;-0.50;99.90;;;;;;4994969;28;20046;-71
2022/11/21 09:01:04;;;;;;;77.88;52.55;;;-0.30;99.90;;;;;;5009487;28;20478;-71
2022/11/21 09:03:31;;;;;;;70.43;48.15;;;-0.20;99.90;;;;;;5018680;28;20046;-71
2022/11/21 09:05:57;;;;;;;78.47;53.05;;;-0.10;99.90;;;;;;5018538;28;20042;-71
2022/11/21 09:08:23;;;;;;;72.10;51.90;;;0.00;99.90;;;;;;5018618;28;20358;-71
2022/11/21 09:10:48;;;;;;;68.95;49.40;;;0.10;99.90;;;;;;5017838;28;20057;-71
2022/11/21 09:13:14;;;;;;;67.35;49.08;;;0.20;99.90;;;;;;5018233;28;20045;-71
2022/11/21 09:18:24;;;;;;;66.50;46.20;;;0.40;99.90;;;;;;5018123;28;20496;-71
2022/11/21 09:20:49;;;;;;;63.58;46.55;;;0.50;99.90;;;;;;5009463;28;20046;-71
2022/11/21 09:23:15;;;;;;;67.03;47.15;;;0.50;99.90;;;;;;5002537;28;20042;-71
2022/11/21 09:25:42;;;;;;;62.13;44.45;;;0.60;99.90;;;;;;5003876;28;20038;-72
2022/11/21 09:28:09;;;;;;;59.17;43.85;;;0.70;99.90;;;;;;5008118;28;20061;-71
2022/11/21 09:30:35;;;;;;;61.28;45.17;;;0.70;99.90;;;;;;5011853;28;20045;-71
2022/11/21 09:33:05;;;;;;;62.92;44.78;;;0.80;99.90;;;;;;5000943;28;20046;-72
2022/11/21 09:35:31;;;;;;;59.47;43.72;;;0.80;99.90;;;;;;4998001;28;20042;-72
2022/11/21 09:37:57;;;;;;;59.63;42.67;;;0.90;99.90;;;;;;4997694;28;20089;-72
2022/11/21 09:40:24;;;;;;;62.13;45.20;;;1.00;99.90;;;;;;4998370;28;20038;-71
2022/11/21 09:43:18;;;;;;;58.38;43.15;;;1.00;99.90;;;;;;4998301;28;20065;-72
2022/11/21 09:45:49;;;;;;;52.80;41.17;;;1.10;99.90;;;;;;5013316;28;20045;-71
2022/11/21 09:48:21;;;;;;;56.38;41.85;;;1.10;99.90;;;;;;5017771;28;20458;-71
2022/11/21 09:50:53;;;;;;;58.05;43.83;;;1.20;99.90;;;;;;5017156;28;20041;-71
2022/11/21 09:53:21;;;;;;;54.13;41.42;;;1.30;99.90;;;;;;5017602;28;20045;-73
2022/11/21 09:55:58;;;;;;;53.08;41.58;;;1.30;99.90;;;;;;5017580;28;20133;-73
2022/11/21 09:58:35;;;;;;;48.97;38.78;;;1.40;99.90;;;;;;5017758;28;20042;-72
2022/11/21 10:01:01;;;;;;;50.55;37.85;;;1.40;99.90;;;;;;5016899;28;20049;-72
2022/11/21 10:03:31;;;;;;;53.28;38.25;;;1.40;99.90;;;;;;5017257;28;20060;-73
2022/11/21 10:06:21;;;;;;;50.83;38.65;;;1.50;99.90;;;;;;5017543;28;20077;-72
2022/11/21 10:09:24;;;;;;;47.00;35.35;;;1.50;99.90;;;;;;5016896;28;20042;-73
2022/11/21 10:15:06;;;;;;;47.38;36.65;;;1.50;99.90;;;;;;5017168;28;20127;-74
2022/11/21 10:18:16;;;;;;;49.83;37.85;;;1.60;99.90;;;;;;5017425;28;20478;-75
2022/11/21 10:21:17;;;;;;;43.25;34.92;;;1.70;99.90;;;;;;4992166;28;20482;-74
2022/11/21 10:23:48;;;;;;;46.90;36.25;;;1.70;99.90;;;;;;4983650;28;20132;-74
2022/11/21 10:26:41;;;;;;;51.63;37.53;;;1.70;99.90;;;;;;5017126;28;20074;-75
2022/11/21 10:29:20;;;;;;;46.63;35.53;;;1.70;99.90;;;;;;4967129;28;20066;-74
2022/11/21 10:31:47;;;;;;;44.03;34.22;;;1.80;99.90;;;;;;5017009;28;20060;-74
2022/11/21 10:34:18;;;;;;;44.78;32.72;;;1.80;99.90;;;;;;5016874;28;20069;-75
2022/11/21 10:36:49;;;;;;;42.78;34.45;;;1.90;99.90;;;;;;5016980;28;20546;-74
2022/11/21 10:39:24;;;;;;;38.33;32.40;;;2.60;99.90;;;;;;5016870;28;20121;-75
2022/11/21 10:42:01;;;;;;;40.58;31.67;;;2.00;99.90;;;;;;5016644;28;20045;-74
2022/11/21 10:47:26;;;;;;;39.63;32.33;;;2.10;99.90;;;;;;5015416;28;20428;-74
2022/11/21 10:50:29;;;;;;;34.58;29.20;;;2.20;99.90;;;;;;5016468;28;20041;-74
2022/11/21 10:54:31;;;;;;;36.85;30.63;;;2.20;99.90;;;;;;5016356;28;20073;-75
2022/11/21 10:56:11;;;;;;;39.95;30.55;;;2.20;99.90;;;;;;5016577;28;20100;-75
2022/11/21 10:58:42;;;;;;;36.33;29.48;;;2.20;99.90;;;;;;5016188;28;20048;-74
2022/11/21 11:01:32;;;;;;;36.92;29.38;;;2.20;99.90;;;;;;5014597;28;20108;-74
2022/11/21 11:04:09;;;;;;;35.58;28.73;;;2.30;99.90;;;;;;4996421;28;20042;-73
2022/11/21 11:06:40;;;;;;;33.15;28.48;;;2.30;99.90;;;;;;4996693;28;20100;-73
2022/11/21 11:09:06;;;;;;;34.55;27.77;;;2.40;99.90;;;;;;4996530;28;20386;-72
2022/11/21 11:11:32;;;;;;;32.92;25.42;;;2.40;99.90;;;;;;4996788;28;20133;-72
2022/11/21 11:14:11;;;;;;;31.08;25.98;;;2.40;99.90;;;;;;5006412;28;20077;-72
2022/11/21 11:16:43;;;;;;;32.78;26.02;;;2.50;99.90;;;;;;5015924;28;20057;-71
2022/11/21 11:19:12;;;;;;;31.98;26.15;;;2.50;99.90;;;;;;5015902;28;20069;-71
2022/11/21 11:21:38;;;;;;;33.50;25.35;;;2.50;99.90;;;;;;5017143;28;20081;-70
2022/11/21 11:24:09;;;;;;;32.65;25.48;;;2.50;99.90;;;;;;5005488;28;20043;-72
2022/11/21 11:26:47;;;;;;;30.10;24.80;;;2.50;99.90;;;;;;4996519;28;20133;-70
2022/11/21 11:29:22;;;;;;;30.60;24.85;;;2.40;99.90;;;;;;5007066;28;20084;-70
2022/11/21 11:32:00;;;;;;;31.20;25.58;;;2.30;99.90;;;;;;5015885;28;20438;-71
2022/11/21 11:34:57;;;;;;;31.83;25.50;;;2.20;99.90;;;;;;5016178;28;20348;-70
2022/11/21 11:37:34;;;;;;;32.65;25.00;;;2.10;99.90;;;;;;5014961;28;20437;-70
2022/11/21 11:40:27;;;;;;;30.48;25.15;;;2.00;99.90;;;;;;5015458;28;20100;-70
2022/11/21 11:49:03;;;;;;;28.17;24.40;;;1.90;99.90;;;;;;5015621;28;20469;-70
2022/11/21 11:51:52;;;;;;;29.52;24.30;;;1.90;99.90;;;;;;5015644;28;20062;-71
2022/11/21 11:54:23;;;;;;;33.20;26.13;;;1.90;99.90;;;;;;5015300;28;20068;-72
2022/11/21 11:56:49;;;;;;;32.20;25.95;;;2.00;99.90;;;;;;4998410;28;20042;-71
2022/11/21 11:59:20;;;;;;;31.70;24.85;;;2.00;99.90;;;;;;4997323;28;20053;-73
2022/11/21 12:02:11;;;;;;;31.27;24.48;;;2.00;99.90;;;;;;5014373;28;20050;-72
2022/11/21 12:04:45;;;;;;;28.48;23.00;;;2.10;99.90;;;;;;5014216;28;20046;-72
2022/11/21 12:07:27;;;;;;;27.50;23.20;;;2.20;99.90;;;;;;5014945;28;20497;-71
2022/11/21 12:10:03;;;;;;;26.02;21.33;;;2.30;99.90;;;;;;5014912;28;20145;-73
2022/11/21 12:12:39;;;;;;;27.80;22.02;;;2.40;99.90;;;;;;5015001;28;20041;-73
2022/11/21 12:18:25;;;;;;;27.52;21.98;;;2.50;99.90;;;;;;5015225;28;20058;-72
2022/11/21 12:21:15;;;;;;;26.17;20.75;;;2.60;99.90;;;;;;5015253;28;20092;-73
2022/11/21 12:23:50;;;;;;;25.17;20.88;;;2.70;99.90;;;;;;5015419;28;20064;-72
2022/11/21 12:26:27;;;;;;;25.63;21.10;;;2.80;99.90;;;;;;5014628;28;20077;-72
2022/11/21 12:29:04;;;;;;;23.02;18.98;;;2.90;99.90;;;;;;5014694;28;20046;-72
2022/11/21 12:32:13;;;;;;;23.58;19.10;;;3.00;99.90;;;;;;5014833;28;20068;-71
2022/11/21 12:34:59;;;;;;;21.02;17.77;;;3.10;99.90;;;;;;5015232;28;20374;-71
2022/11/21 12:37:42;;;;;;;24.33;20.40;;;3.30;99.90;;;;;;5017737;28;20053;-71
2022/11/21 12:40:56;;;;;;;23.67;19.77;;;3.30;99.90;;;;;;5018928;28;20077;-73
2022/11/21 12:43:40;;;;;;;27.30;20.77;;;3.40;99.90;;;;;;4983106;28;20320;-70
2022/11/21 12:46:14;;;;;;;29.00;24.02;;;3.50;99.90;;;;;;5018886;28;20133;-72
2022/11/21 12:54:52;;;;;;;30.17;23.65;;;3.50;99.90;;;;;;5019025;28;20050;-71
2022/11/21 12:57:20;;;;;;;26.88;22.10;;;3.50;99.90;;;;;;5018440;28;20386;-72
2022/11/21 13:00:19;;;;;;;28.67;23.90;;;3.50;99.90;;;;;;5018615;28;20048;-71
2022/11/21 13:03:22;;;;;;;27.77;22.45;;;3.50;99.90;;;;;;5018479;28;20061;-71
2022/11/21 13:05:52;;;;;;;28.02;22.55;;;3.60;99.90;;;;;;5018368;28;20418;-71
2022/11/21 13:08:22;;;;;;;27.25;22.90;;;3.60;99.90;;;;;;5001450;28;20340;-71
2022/11/21 13:11:57;;;;;;;28.10;22.48;;;3.60;99.90;;;;;;5017357;28;20120;-71
2022/11/21 13:13:50;;;;;;;25.17;21.50;;;3.60;99.90;;;;;;5000700;28;20054;-71
2022/11/21 13:16:38;;;;;;;27.15;21.67;;;3.60;99.90;;;;;;5018585;28;20120;-71